createdAt,value
2023-03-29T00:04:50.905Z,2.87
2023-03-29T00:09:58.159Z,2.97
2023-03-29T00:15:05.537Z,2.53
2023-03-29T00:20:12.747Z,2.70
2023-03-29T00:25:20.057Z,2.58
2023-03-29T00:30:27.307Z,2.49
2023-03-29T00:35:34.758Z,2.68
2023-03-29T00:40:42.024Z,2.76
2023-03-29T00:45:49.321Z,2.57
2023-03-29T00:50:56.549Z,2.46
2023-03-29T00:56:03.977Z,2.61
2023-03-29T01:01:11.265Z,2.46
2023-03-29T01:06:18.694Z,2.25
2023-03-29T01:11:25.828Z,2.35
2023-03-29T01:16:33.311Z,2.31
2023-03-29T01:21:40.518Z,2.44
2023-03-29T01:26:47.955Z,2.19
2023-03-29T01:31:55.090Z,2.25
2023-03-29T01:37:02.355Z,1.82
2023-03-29T01:42:09.641Z,1.91
2023-03-29T01:47:17.050Z,2.01
2023-03-29T01:52:24.238Z,1.89
2023-03-29T01:57:31.664Z,2.03
2023-03-29T02:02:38.974Z,1.95
2023-03-29T02:07:46.358Z,1.86
2023-03-29T02:12:53.570Z,1.79
2023-03-29T02:18:01.000Z,1.70
2023-03-29T02:23:08.258Z,1.87
2023-03-29T02:28:15.613Z,1.73
2023-03-29T02:33:22.802Z,1.68
2023-03-29T02:38:30.239Z,1.43
2023-03-29T02:43:37.458Z,1.42
2023-03-29T02:48:44.786Z,1.58
2023-03-29T02:53:52.039Z,1.48
2023-03-29T02:58:59.344Z,1.42
2023-03-29T03:04:06.646Z,1.43
2023-03-29T03:09:14.073Z,1.42
2023-03-29T03:14:21.222Z,1.65
2023-03-29T03:19:28.568Z,1.63
2023-03-29T03:29:40.348Z,1.82
2023-03-29T03:34:47.518Z,1.56
2023-03-29T03:39:54.886Z,1.73
2023-03-29T03:45:02.169Z,1.64
2023-03-29T03:50:09.586Z,1.93
2023-03-29T03:55:16.814Z,1.91
2023-03-29T04:00:24.227Z,2.21
2023-03-29T04:05:31.416Z,1.87
2023-03-29T04:10:38.771Z,1.76
2023-03-29T04:15:45.989Z,1.94
2023-03-29T04:20:53.330Z,1.77
2023-03-29T04:26:00.515Z,1.97
2023-03-29T04:31:07.893Z,1.78
2023-03-29T04:36:15.048Z,1.86
2023-03-29T04:41:22.368Z,2.11
2023-03-29T04:46:29.680Z,3.87
2023-03-29T04:51:37.081Z,2.28
2023-03-29T04:56:44.384Z,2.63
2023-03-29T05:01:51.740Z,1.87
2023-03-29T05:06:58.957Z,2.11
2023-03-29T05:12:18.142Z,2.11
2023-03-29T05:17:15.379Z,1.86
2023-03-29T05:22:22.530Z,1.93
2023-03-29T05:27:29.807Z,2.67
2023-03-29T05:32:37.049Z,1.74
2023-03-29T05:37:44.462Z,1.91
2023-03-29T05:42:51.737Z,2.09
2023-03-29T05:47:59.203Z,1.90
2023-03-29T05:53:06.389Z,1.95
2023-03-29T05:58:13.772Z,1.96
2023-03-29T06:03:21.985Z,1.91
2023-03-29T06:08:27.916Z,2.19
2023-03-29T06:13:35.248Z,15.99
2023-03-29T06:18:42.535Z,13.08
2023-03-29T06:23:49.720Z,9.46
2023-03-29T06:28:56.973Z,3.25
2023-03-29T06:34:04.145Z,2.20
2023-03-29T06:39:11.520Z,2.14
2023-03-29T06:44:18.870Z,1.83
2023-03-29T06:49:26.250Z,2.34
2023-03-29T06:54:33.533Z,2.14
2023-03-29T06:59:41.064Z,2.07
2023-03-29T07:04:48.250Z,2.24
2023-03-29T07:09:55.666Z,2.03
2023-03-29T07:15:02.856Z,2.07
2023-03-29T07:20:10.339Z,2.33
2023-03-29T07:25:17.504Z,2.88
2023-03-29T07:30:24.857Z,2.21
2023-03-29T07:35:32.047Z,2.53
2023-03-29T07:40:39.393Z,2.27
2023-03-29T07:45:46.565Z,2.14
2023-03-29T07:50:53.967Z,1.88
2023-03-29T07:56:01.124Z,1.99
2023-03-29T08:01:08.604Z,1.89
2023-03-29T08:06:15.710Z,1.89
2023-03-29T08:11:22.990Z,3.62
2023-03-29T08:16:30.136Z,2.05
2023-03-29T08:21:37.408Z,2.99
2023-03-29T08:26:44.662Z,1.96
2023-03-29T08:31:52.016Z,1.82
2023-03-29T08:36:59.297Z,1.83
2023-03-29T08:42:06.740Z,1.86
2023-03-29T08:47:14.009Z,2.12
2023-03-29T08:52:21.336Z,1.79
2023-03-29T08:57:28.629Z,1.93
2023-03-29T09:02:36.150Z,2.20
2023-03-29T09:07:43.244Z,2.03
2023-03-29T09:12:50.648Z,2.29
2023-03-29T09:17:57.806Z,2.09
2023-03-29T09:23:05.190Z,2.14
2023-03-29T09:28:12.496Z,3.65
2023-03-29T09:33:19.802Z,2.62
2023-03-29T09:38:26.938Z,2.25
2023-03-29T09:43:34.358Z,2.17
2023-03-29T09:48:41.524Z,2.17
2023-03-29T09:53:48.788Z,2.01
2023-03-29T09:58:56.000Z,2.08
2023-03-29T10:04:03.567Z,2.09
2023-03-29T10:09:10.690Z,1.88
2023-03-29T10:14:18.122Z,1.85
2023-03-29T10:19:25.320Z,1.64
2023-03-29T10:24:32.621Z,1.80
2023-03-29T10:29:39.805Z,1.84
2023-03-29T10:34:47.258Z,1.81
2023-03-29T10:39:54.474Z,1.72
2023-03-29T10:45:01.847Z,1.59
2023-03-29T10:50:09.195Z,1.63
2023-03-29T10:55:16.438Z,1.86
2023-03-29T11:00:23.670Z,1.78
2023-03-29T11:05:30.986Z,1.64
2023-03-29T11:10:38.204Z,1.60
2023-03-29T11:15:45.537Z,1.64
2023-03-29T11:20:52.707Z,1.54
2023-03-29T11:26:00.108Z,1.41
2023-03-29T11:31:07.263Z,1.48
2023-03-29T11:36:14.595Z,1.49
2023-03-29T11:41:21.830Z,1.51
2023-03-29T11:46:29.271Z,1.54
2023-03-29T11:51:36.384Z,1.81
2023-03-29T11:56:43.969Z,2.12
2023-03-29T12:01:51.296Z,3.33
2023-03-29T12:06:58.513Z,1.78
2023-03-29T12:12:05.757Z,1.79
2023-03-29T12:17:13.111Z,1.68
2023-03-29T12:22:20.373Z,1.51
2023-03-29T12:27:27.771Z,1.39
2023-03-29T12:32:34.946Z,1.58
2023-03-29T12:37:42.225Z,1.51
2023-03-29T12:42:49.475Z,1.58
2023-03-29T12:47:56.794Z,1.92
2023-03-29T12:53:03.929Z,1.53
2023-03-29T12:58:11.231Z,1.56
2023-03-29T13:03:18.490Z,1.60
2023-03-29T13:08:25.947Z,1.51
2023-03-29T13:13:33.116Z,1.54
2023-03-29T13:18:40.569Z,1.44
2023-03-29T13:23:47.739Z,1.69
2023-03-29T13:28:57.874Z,1.53
2023-03-29T13:34:02.365Z,1.74
2023-03-29T13:39:09.682Z,1.49
2023-03-29T13:44:16.775Z,1.73
2023-03-29T13:49:24.716Z,1.60
2023-03-29T13:54:32.027Z,1.53
2023-03-29T13:59:39.475Z,1.54
2023-03-29T14:04:46.622Z,1.28
2023-03-29T14:09:54.045Z,1.37
2023-03-29T14:15:05.721Z,1.31
2023-03-29T14:20:03.187Z,1.23
2023-03-29T14:25:15.967Z,1.49
2023-03-29T14:30:13.448Z,1.49
2023-03-29T14:35:27.115Z,1.28
2023-03-29T14:40:24.427Z,1.51
2023-03-29T14:45:32.828Z,1.37
2023-03-29T14:50:40.145Z,1.50
2023-03-29T14:55:45.522Z,1.32
2023-03-29T15:00:52.989Z,1.49
2023-03-29T15:06:01.104Z,1.76
2023-03-29T15:11:08.420Z,1.62
2023-03-29T15:16:15.931Z,1.37
2023-03-29T15:21:23.244Z,1.55
2023-03-29T15:26:30.471Z,1.81
2023-03-29T15:31:41.501Z,1.80
2023-03-29T15:36:38.707Z,1.37
2023-03-29T15:41:50.256Z,1.40
2023-03-29T15:46:47.532Z,1.33
2023-03-29T15:51:58.414Z,1.24
2023-03-29T15:56:55.679Z,2.22
2023-03-29T16:02:10.067Z,2.57
2023-03-29T16:07:07.210Z,1.71
2023-03-29T16:17:20.562Z,1.17
2023-03-29T16:27:29.493Z,1.36
2023-03-29T16:32:42.080Z,1.45
2023-03-29T16:37:39.356Z,1.50
2023-03-29T16:42:49.179Z,1.51
2023-03-29T16:47:56.555Z,1.42
2023-03-29T16:53:07.025Z,1.48
2023-03-29T16:58:04.238Z,1.50
2023-03-29T17:03:23.239Z,9.81
2023-03-29T17:08:20.917Z,2.68
2023-03-29T17:13:28.748Z,1.97
2023-03-29T17:18:36.159Z,1.51
2023-03-29T17:23:43.603Z,1.33
2023-03-29T17:29:01.695Z,1.39
2023-03-29T17:33:59.027Z,1.86
2023-03-29T17:39:10.493Z,2.33
2023-03-29T17:44:07.665Z,4.16
2023-03-29T17:49:26.299Z,7.59
2023-03-29T17:54:23.713Z,3.07
2023-03-29T17:59:36.003Z,3.32
2023-03-29T18:04:33.256Z,3.17
2023-03-29T18:09:40.395Z,3.08
2023-03-29T18:14:50.266Z,2.73
2023-03-29T18:19:57.574Z,3.38
2023-03-29T18:30:09.612Z,3.92
2023-03-29T18:35:17.027Z,5.83
2023-03-29T18:40:24.148Z,5.74
2023-03-29T18:45:31.541Z,5.10
2023-03-29T18:50:38.857Z,9.11
2023-03-29T18:55:46.207Z,5.92
2023-03-29T19:00:53.513Z,7.92
2023-03-29T19:06:01.274Z,8.03
2023-03-29T19:11:08.313Z,9.14
2023-03-29T19:16:15.880Z,6.65
2023-03-29T19:21:23.166Z,5.58
2023-03-29T19:26:30.487Z,6.54
2023-03-29T19:31:37.901Z,5.43
2023-03-29T19:36:45.075Z,4.88
2023-03-29T19:41:52.343Z,5.14
2023-03-29T19:46:59.713Z,5.92
2023-03-29T19:52:06.891Z,5.41
2023-03-29T19:57:14.284Z,5.99
2023-03-29T20:02:21.322Z,6.38
2023-03-29T20:07:28.693Z,6.26
2023-03-29T20:12:35.845Z,5.30
2023-03-29T20:17:43.263Z,31.36
2023-03-29T20:22:50.380Z,10.36
2023-03-29T20:27:57.742Z,3.66
2023-03-29T20:33:04.979Z,6.87
2023-03-29T20:38:12.316Z,6.43
2023-03-29T20:43:19.454Z,7.77
2023-03-29T20:48:26.792Z,6.62
2023-03-29T20:53:34.096Z,7.61
2023-03-29T20:58:41.498Z,7.61
2023-03-29T21:03:49.100Z,5.25
2023-03-29T21:08:56.236Z,7.05
2023-03-29T21:14:03.576Z,9.67
2023-03-29T21:19:12.716Z,7.04
2023-03-29T21:24:20.983Z,6.06
2023-03-29T21:29:28.137Z,7.27
2023-03-29T21:34:35.286Z,8.51
2023-03-29T21:39:42.572Z,6.71
2023-03-29T21:44:49.823Z,6.35
2023-03-29T21:49:57.215Z,7.31
2023-03-29T21:55:04.535Z,10.99
2023-03-29T22:00:11.752Z,9.12
2023-03-29T22:05:19.034Z,8.60
2023-03-29T22:10:26.356Z,7.70
2023-03-29T22:15:33.618Z,8.94
2023-03-29T22:20:40.980Z,7.75
2023-03-29T22:25:48.208Z,7.26
2023-03-29T22:30:55.492Z,7.41
2023-03-29T22:36:02.717Z,6.80
2023-03-29T22:41:09.958Z,6.60
2023-03-29T22:46:17.269Z,6.23
2023-03-29T22:51:25.242Z,6.67
2023-03-29T22:56:32.394Z,7.06
2023-03-29T23:01:39.896Z,6.56
2023-03-29T23:06:47.060Z,6.98
2023-03-29T23:11:54.402Z,7.01
2023-03-29T23:17:01.597Z,7.14
2023-03-29T23:22:08.844Z,10.59
2023-03-29T23:27:16.111Z,6.56
2023-03-29T23:32:23.403Z,6.63
2023-03-29T23:37:30.568Z,8.13
2023-03-29T23:42:37.964Z,6.78
2023-03-29T23:47:45.212Z,6.86
2023-03-29T23:52:52.483Z,7.47
2023-03-29T23:57:59.590Z,6.62
